createdAt,value
2023-03-26T00:00:54.227Z,11.31
2023-03-26T00:03:20.946Z,11.26
2023-03-26T00:05:50.688Z,11.22
2023-03-26T00:08:17.727Z,11.22
2023-03-26T00:10:44.389Z,11.22
2023-03-26T00:13:11.413Z,11.21
2023-03-26T00:15:38.393Z,11.23
2023-03-26T00:18:05.809Z,11.14
2023-03-26T00:20:35.104Z,11.16
2023-03-26T00:23:01.680Z,11.05
2023-03-26T00:25:28.534Z,11.15
2023-03-26T00:27:55.106Z,11.10
2023-03-26T00:30:21.653Z,11.11
2023-03-26T00:32:53.664Z,11.07
2023-03-26T00:35:20.908Z,11.02
2023-03-26T00:37:47.729Z,11.00
2023-03-26T00:40:14.308Z,10.98
2023-03-26T00:42:42.371Z,10.95
2023-03-26T00:45:09.151Z,10.94
2023-03-26T00:47:36.124Z,10.92
2023-03-26T00:50:04.314Z,10.94
2023-03-26T00:52:31.754Z,10.91
2023-03-26T00:54:58.393Z,10.81
2023-03-26T00:57:35.975Z,10.75
2023-03-26T01:00:10.137Z,10.68
2023-03-26T01:02:36.726Z,10.54
2023-03-26T01:05:35.093Z,10.55
2023-03-26T01:08:15.928Z,10.50
2023-03-26T01:10:44.473Z,10.35
2023-03-26T01:13:11.199Z,10.41
2023-03-26T01:15:39.065Z,10.44
2023-03-26T01:18:09.765Z,10.38
2023-03-26T01:20:46.604Z,10.37
2023-03-26T01:23:21.921Z,10.29
2023-03-26T01:25:56.985Z,10.33
2023-03-26T01:28:26.179Z,10.23
2023-03-26T01:31:14.731Z,10.26
2023-03-26T01:33:50.743Z,10.25
2023-03-26T01:36:32.514Z,10.22
2023-03-26T01:39:25.160Z,10.18
2023-03-26T01:41:57.176Z,10.14
2023-03-26T01:44:38.416Z,10.08
2023-03-26T01:47:06.480Z,10.12
2023-03-26T01:49:33.469Z,10.14
2023-03-26T01:52:00.610Z,10.13
2023-03-26T01:54:30.558Z,10.13
2023-03-26T01:57:23.980Z,10.17
2023-03-26T02:00:12.048Z,10.17
2023-03-26T02:02:50.706Z,10.21
2023-03-26T02:05:33.895Z,10.23
2023-03-26T02:08:16.493Z,10.30
2023-03-26T02:10:47.180Z,10.34
2023-03-26T02:13:13.891Z,10.34
2023-03-26T02:15:41.057Z,10.35
2023-03-26T02:18:10.814Z,10.36
2023-03-26T02:20:37.696Z,10.38
2023-03-26T02:23:04.204Z,10.40
2023-03-26T02:25:30.727Z,10.44
2023-03-26T02:27:57.186Z,10.47
2023-03-26T02:30:26.011Z,10.50
2023-03-26T02:32:54.197Z,10.51
2023-03-26T02:35:22.219Z,10.57
2023-03-26T02:37:50.878Z,10.62
2023-03-26T02:40:22.352Z,10.63
2023-03-26T02:42:49.464Z,10.60
2023-03-26T02:45:16.140Z,10.70
2023-03-26T02:47:43.349Z,10.70
2023-03-26T02:50:12.084Z,10.66
2023-03-26T02:52:38.741Z,10.64
2023-03-26T02:55:05.692Z,10.70
2023-03-26T02:57:32.250Z,10.71
2023-03-26T02:59:59.000Z,10.74
2023-03-26T03:02:25.667Z,10.67
2023-03-26T03:04:52.315Z,10.66
2023-03-26T03:07:20.365Z,10.64
2023-03-26T03:09:46.872Z,10.64
2023-03-26T03:12:13.425Z,10.60
2023-03-26T03:14:40.731Z,10.58
2023-03-26T03:17:07.325Z,10.60
2023-03-26T03:19:33.844Z,10.59
2023-03-26T03:22:00.426Z,10.61
2023-03-26T03:24:27.087Z,10.55
2023-03-26T03:26:56.868Z,10.57
2023-03-26T03:29:23.913Z,10.55
2023-03-26T03:31:50.624Z,10.55
2023-03-26T03:34:17.150Z,10.56
2023-03-26T03:36:48.544Z,10.54
2023-03-26T03:39:15.414Z,10.56
2023-03-26T03:41:41.955Z,10.55
2023-03-26T03:44:08.528Z,10.60
2023-03-26T03:46:35.417Z,10.53
2023-03-26T03:49:03.122Z,10.59
2023-03-26T03:51:29.785Z,10.58
2023-03-26T03:53:56.617Z,10.56
2023-03-26T03:56:24.177Z,10.66
2023-03-26T03:58:51.580Z,10.64
2023-03-26T04:01:18.603Z,10.64
2023-03-26T04:03:46.947Z,10.63
2023-03-26T04:06:13.823Z,10.62
2023-03-26T04:08:40.536Z,10.62
2023-03-26T04:11:07.023Z,10.67
2023-03-26T04:13:33.733Z,10.69
2023-03-26T04:16:00.542Z,10.66
2023-03-26T04:18:27.679Z,10.59
2023-03-26T04:20:55.542Z,10.54
2023-03-26T04:23:23.103Z,10.47
2023-03-26T04:25:54.346Z,10.46
2023-03-26T04:28:42.254Z,10.47
2023-03-26T04:31:13.930Z,10.59
2023-03-26T04:33:40.677Z,10.49
2023-03-26T04:36:09.209Z,10.51
2023-03-26T04:38:44.685Z,10.47
2023-03-26T04:41:13.078Z,10.44
2023-03-26T04:43:46.922Z,10.41
2023-03-26T04:46:14.415Z,10.34
2023-03-26T04:48:41.120Z,10.38
2023-03-26T04:51:10.657Z,10.38
2023-03-26T04:53:37.206Z,10.46
2023-03-26T04:56:07.051Z,10.49
2023-03-26T04:58:33.747Z,10.47
2023-03-26T05:01:10.354Z,10.44
2023-03-26T05:03:39.159Z,10.41
2023-03-26T05:06:05.880Z,10.31
2023-03-26T05:08:32.385Z,10.38
2023-03-26T05:10:58.979Z,10.35
2023-03-26T05:13:25.597Z,10.45
2023-03-26T05:15:52.499Z,10.43
2023-03-26T05:18:19.123Z,10.35
2023-03-26T05:20:46.269Z,10.42
2023-03-26T05:23:12.850Z,10.41
2023-03-26T05:25:39.484Z,10.44
2023-03-26T05:28:06.288Z,10.44
2023-03-26T05:30:32.869Z,10.43
2023-03-26T05:32:59.446Z,10.39
2023-03-26T05:35:25.953Z,10.41
2023-03-26T05:37:52.540Z,10.45
2023-03-26T05:40:19.996Z,10.43
2023-03-26T05:42:47.343Z,10.46
2023-03-26T05:45:16.095Z,10.45
2023-03-26T05:47:42.730Z,10.40
2023-03-26T05:50:10.982Z,10.37
2023-03-26T05:52:37.713Z,10.40
2023-03-26T05:55:04.513Z,10.48
2023-03-26T05:57:31.706Z,10.43
2023-03-26T05:59:58.221Z,10.47
2023-03-26T06:02:24.769Z,10.49
2023-03-26T06:04:51.543Z,10.53
2023-03-26T06:07:19.827Z,10.55
2023-03-26T06:09:46.691Z,10.50
2023-03-26T06:12:14.140Z,10.46
2023-03-26T06:14:42.837Z,10.48
2023-03-26T06:17:10.668Z,10.47
2023-03-26T06:19:37.542Z,10.40
2023-03-26T06:22:04.833Z,10.41
2023-03-26T06:24:31.942Z,10.39
2023-03-26T06:26:58.410Z,10.41
2023-03-26T06:29:25.102Z,10.38
2023-03-26T06:31:51.581Z,10.45
2023-03-26T06:34:18.145Z,10.47
2023-03-26T06:36:44.670Z,10.46
2023-03-26T06:39:11.301Z,10.40
2023-03-26T06:41:37.827Z,10.36
2023-03-26T06:44:04.390Z,10.35
2023-03-26T06:46:31.677Z,10.41
2023-03-26T06:48:58.394Z,10.46
2023-03-26T06:51:24.961Z,10.49
2023-03-26T06:53:51.509Z,10.51
2023-03-26T06:56:18.076Z,10.53
2023-03-26T06:58:44.542Z,10.51
2023-03-26T07:01:11.224Z,10.48
2023-03-26T07:03:37.905Z,10.41
2023-03-26T07:06:04.729Z,10.35
2023-03-26T07:08:31.486Z,10.34
2023-03-26T07:10:58.299Z,10.27
2023-03-26T07:13:24.915Z,10.35
2023-03-26T07:15:51.402Z,10.35
2023-03-26T07:18:18.130Z,10.32
2023-03-26T07:20:46.028Z,10.32
2023-03-26T07:23:15.501Z,10.35
2023-03-26T07:25:42.466Z,10.25
2023-03-26T07:28:30.742Z,10.24
2023-03-26T07:31:11.415Z,10.27
2023-03-26T07:33:47.977Z,10.25
2023-03-26T07:36:24.403Z,10.32
2023-03-26T07:39:09.183Z,10.25
2023-03-26T07:41:49.926Z,10.24
2023-03-26T07:44:35.720Z,10.19
2023-03-26T07:47:15.182Z,10.28
2023-03-26T07:49:43.347Z,10.30
2023-03-26T07:52:11.103Z,10.29
2023-03-26T07:54:38.002Z,10.29
2023-03-26T07:57:40.929Z,10.32
2023-03-26T08:00:27.132Z,10.25
2023-03-26T08:03:19.508Z,10.31
2023-03-26T08:06:22.313Z,10.32
2023-03-26T08:09:20.619Z,10.36
2023-03-26T08:11:58.028Z,10.36
2023-03-26T08:14:53.323Z,10.35
2023-03-26T08:17:33.869Z,10.28
2023-03-26T08:20:32.060Z,10.32
2023-03-26T08:23:15.458Z,10.28
2023-03-26T08:25:59.251Z,10.22
2023-03-26T08:28:52.670Z,10.27
2023-03-26T08:31:28.760Z,10.25
2023-03-26T08:33:55.550Z,10.22
2023-03-26T08:36:22.006Z,10.30
2023-03-26T08:38:48.531Z,10.33
2023-03-26T08:41:33.008Z,10.34
2023-03-26T08:44:24.423Z,10.29
2023-03-26T08:47:28.180Z,10.35
2023-03-26T08:50:13.589Z,10.30
2023-03-26T08:53:01.759Z,10.20
2023-03-26T08:55:41.334Z,10.12
2023-03-26T08:58:25.953Z,10.12
2023-03-26T09:01:30.152Z,10.14
2023-03-26T09:04:15.472Z,10.06
2023-03-26T09:07:00.392Z,10.06
2023-03-26T09:10:07.170Z,10.06
2023-03-26T09:13:01.227Z,9.95
2023-03-26T09:15:52.069Z,10.04
2023-03-26T09:18:53.600Z,10.08
2023-03-26T09:21:49.797Z,9.89
2023-03-26T09:24:37.489Z,10.09
2023-03-26T09:27:25.642Z,10.11
2023-03-26T09:30:16.751Z,10.12
2023-03-26T09:33:16.887Z,9.97
2023-03-26T09:36:04.494Z,9.87
2023-03-26T09:38:43.291Z,9.83
2023-03-26T09:41:35.387Z,9.83
2023-03-26T09:44:36.009Z,9.92
2023-03-26T09:47:32.357Z,10.03
2023-03-26T09:50:34.185Z,10.09
2023-03-26T09:53:09.564Z,10.13
2023-03-26T09:55:57.563Z,10.04
2023-03-26T09:58:41.776Z,9.89
2023-03-26T10:01:25.032Z,10.05
2023-03-26T10:04:23.720Z,10.16
2023-03-26T10:06:58.503Z,10.36
2023-03-26T10:09:43.088Z,10.55
2023-03-26T10:12:13.710Z,10.74
2023-03-26T10:15:02.946Z,10.83
2023-03-26T10:18:27.756Z,11.01
2023-03-26T10:21:06.125Z,10.64
2023-03-26T10:23:41.448Z,10.88
2023-03-26T10:26:33.422Z,11.01
2023-03-26T10:29:00.030Z,11.19
2023-03-26T10:31:39.292Z,11.23
2023-03-26T10:35:00.258Z,11.33
2023-03-26T10:37:50.653Z,11.50
2023-03-26T10:40:42.864Z,11.48
2023-03-26T10:43:31.029Z,11.41
2023-03-26T10:46:39.249Z,11.39
2023-03-26T10:49:37.963Z,11.29
2023-03-26T10:52:20.892Z,11.51
2023-03-26T10:55:35.225Z,11.54
2023-03-26T10:58:22.993Z,11.64
2023-03-26T11:01:03.462Z,11.81
2023-03-26T11:03:43.748Z,11.67
2023-03-26T11:06:32.040Z,11.81
2023-03-26T11:09:23.642Z,11.79
2023-03-26T11:12:26.352Z,11.68
2023-03-26T11:15:01.248Z,11.56
2023-03-26T11:17:40.841Z,11.72
2023-03-26T11:20:27.386Z,11.77
2023-03-26T11:23:07.970Z,11.84
2023-03-26T11:25:58.366Z,11.77
2023-03-26T11:29:04.422Z,11.66
2023-03-26T11:31:57.638Z,11.71
2023-03-26T11:34:50.672Z,11.63
2023-03-26T11:37:26.027Z,11.63
2023-03-26T11:39:56.820Z,11.60
2023-03-26T11:42:24.764Z,11.49
2023-03-26T11:45:05.648Z,11.41
2023-03-26T11:47:39.020Z,11.43
2023-03-26T11:50:10.657Z,11.40
2023-03-26T11:52:37.336Z,11.41
2023-03-26T11:55:03.967Z,11.45
2023-03-26T11:57:35.133Z,11.26
2023-03-26T12:00:16.198Z,10.91
2023-03-26T12:02:44.502Z,11.25
2023-03-26T12:05:13.799Z,11.16
2023-03-26T12:07:55.761Z,11.05
2023-03-26T12:10:33.243Z,11.03
2023-03-26T12:13:02.921Z,11.04
2023-03-26T12:15:31.978Z,11.02
2023-03-26T12:17:59.487Z,11.09
2023-03-26T12:20:26.108Z,11.16
2023-03-26T12:23:00.558Z,11.31
2023-03-26T12:25:32.375Z,11.25
2023-03-26T12:28:13.958Z,11.17
2023-03-26T12:30:44.884Z,11.06
2023-03-26T12:33:22.090Z,11.02
2023-03-26T12:35:49.312Z,10.97
2023-03-26T12:38:32.963Z,11.13
2023-03-26T12:44:49.409Z,11.04
2023-03-26T12:44:51.172Z,11.00
2023-03-26T12:47:54.325Z,10.93
2023-03-26T12:49:33.745Z,10.90
2023-03-26T12:52:19.659Z,10.81
2023-03-26T12:55:03.124Z,10.80
2023-03-26T12:58:13.746Z,10.80
2023-03-26T13:01:11.213Z,10.70
2023-03-26T13:03:56.496Z,10.61
2023-03-26T13:06:33.595Z,10.67
2023-03-26T13:09:50.006Z,10.69
2023-03-26T13:12:46.232Z,10.55
2023-03-26T13:15:36.905Z,10.57
2023-03-26T13:18:18.689Z,10.48
2023-03-26T13:20:49.268Z,10.43
2023-03-26T13:23:46.615Z,10.45
2023-03-26T13:26:26.655Z,10.46
2023-03-26T13:29:01.994Z,10.34
2023-03-26T13:31:35.241Z,10.41
2023-03-26T13:34:27.587Z,10.50
2023-03-26T13:37:12.821Z,10.45
2023-03-26T13:40:04.998Z,10.54
2023-03-26T13:42:59.104Z,10.56
2023-03-26T13:45:56.338Z,10.56
2023-03-26T13:48:28.285Z,10.54
2023-03-26T13:51:23.370Z,10.52
2023-03-26T13:53:58.404Z,10.56
2023-03-26T13:56:38.438Z,10.55
2023-03-26T13:59:33.688Z,10.55
2023-03-26T14:02:11.587Z,10.55
2023-03-26T14:04:47.426Z,10.45
2023-03-26T14:07:25.265Z,10.44
2023-03-26T14:10:27.049Z,10.47
2023-03-26T14:13:07.234Z,10.39
2023-03-26T14:15:46.273Z,10.63
2023-03-26T14:18:33.415Z,10.70
2023-03-26T14:21:14.100Z,10.78
2023-03-26T14:24:04.987Z,10.84
2023-03-26T14:26:40.678Z,10.92
